Accueil
METAR-TAF:

METAR-TAF

Aéroports :

Armilla

Grenade, Espagne

latitude: 37-08N, longitude: 003-38-08W, altitude: 700 m

Observation

Le bulletin a été fait il y a 2 heures et 10 minutes, à 13:00 UTC
Vent 7 kt de nord, variant entre nord-ouest et nord/nord-est
Température 12°C
Humidité 58%
Pression 1024 hPa
Visibilité 10 km ou plus
Quelques nuages à une hauteur de 2400 ft
Nuages fragmentés à une hauteur de 4000 ft

METAR: LEGA 261300Z 35007KT 320V030 9999 FEW024 BKN040 12/04 Q1024

Heure: 16:10 (15:10 UTC)

Prévision

Le bulletin a été fait il y a 1 heure et 10 minutes, à 14:00 UTC
Prévision valable du 26 à 15 UTC au 26 à 24 UTC
Vent 5 kt de nord-ouest
Visibilité 10 km ou plus
Quelques nuages à une hauteur de 2000 ft
Nuages fragmentés à une hauteur de 4000 ft

TAF: LEGA 261400Z 2615/2624 32005KT 9999 FEW020 BKN040

Observations et prévisions météorologiques de plus de 4000 aéroports (messages METAR et TAF).

Les stations disponibles sont représentées par des disques jaunes et rouges sur la carte.

Passer la souris dessus pour voir le nom de la station.

Cliquer dessus pour voir les observations et prévisions météorologiques.

Pour changer de carte: cliquez sur les boutons verts avec une croix noire pour zoomer, sur le bouton vert avec un tiret pour effectuer un zoom arrière, ou sur les flèches vertes pour les cartes adjacentes.


METAR-TAF: